sensor_id;sensor_type;location;lat;lon;timestamp;pressure;altitude;pressure_sealevel;temperature;humidity
59650;BME280;46162;57.568;25.814;2023-05-02T00:00:12;100776.09;;;4.72;100.00
59650;BME280;46162;57.568;25.814;2023-05-02T00:02:40;100769.22;;;4.81;100.00
59650;BME280;46162;57.568;25.814;2023-05-02T00:05:11;100764.69;;;4.82;100.00
59650;BME280;46162;57.568;25.814;2023-05-02T00:07:39;100752.31;;;4.81;100.00
59650;BME280;46162;57.568;25.814;2023-05-02T00:10:08;100751.47;;;4.80;100.00
59650;BME280;46162;57.568;25.814;2023-05-02T00:12:37;100752.31;;;4.81;100.00
59650;BME280;46162;57.568;25.814;2023-05-02T00:15:07;100747.13;;;4.90;100.00
59650;BME280;46162;57.568;25.814;2023-05-02T00:17:39;100732.41;;;4.85;100.00
59650;BME280;46162;57.568;25.814;2023-05-02T00:20:08;100737.19;;;4.92;100.00
59650;BME280;46162;57.568;25.814;2023-05-02T00:22:39;100730.59;;;4.96;100.00
59650;BME280;46162;57.568;25.814;2023-05-02T00:25:08;100732.03;;;4.89;100.00
59650;BME280;46162;57.568;25.814;2023-05-02T00:27:42;100728.81;;;4.97;100.00
59650;BME280;46162;57.568;25.814;2023-05-02T00:30:13;100729.00;;;4.94;100.00
59650;BME280;46162;57.568;25.814;2023-05-02T00:32:42;100722.06;;;4.91;100.00
59650;BME280;46162;57.568;25.814;2023-05-02T00:35:10;100731.31;;;4.87;100.00
59650;BME280;46162;57.568;25.814;2023-05-02T00:37:40;100724.00;;;4.89;100.00
59650;BME280;46162;57.568;25.814;2023-05-02T00:40:10;100721.63;;;4.98;100.00
59650;BME280;46162;57.568;25.814;2023-05-02T00:42:39;100718.97;;;4.98;100.00
59650;BME280;46162;57.568;25.814;2023-05-02T00:45:08;100714.44;;;4.98;100.00
59650;BME280;46162;57.568;25.814;2023-05-02T00:47:38;100716.72;;;4.91;100.00
59650;BME280;46162;57.568;25.814;2023-05-02T00:50:07;100712.22;;;4.92;100.00
59650;BME280;46162;57.568;25.814;2023-05-02T00:52:36;100707.91;;;5.02;100.00
59650;BME280;46162;57.568;25.814;2023-05-02T00:55:07;100709.09;;;4.98;100.00
59650;BME280;46162;57.568;25.814;2023-05-02T00:57:36;100703.34;;;4.91;100.00
59650;BME280;46162;57.568;25.814;2023-05-02T01:00:06;100698.00;;;4.91;100.00
59650;BME280;46162;57.568;25.814;2023-05-02T01:02:44;100687.53;;;4.88;100.00
59650;BME280;46162;57.568;25.814;2023-05-02T01:05:16;100684.00;;;4.88;100.00
59650;BME280;46162;57.568;25.814;2023-05-02T01:07:57;100680.94;;;4.81;100.00
59650;BME280;46162;57.568;25.814;2023-05-02T01:10:46;100679.84;;;4.84;100.00
59650;BME280;46162;57.568;25.814;2023-05-02T01:13:19;100677.50;;;4.79;100.00
59650;BME280;46162;57.568;25.814;2023-05-02T01:15:50;100675.75;;;4.67;100.00
59650;BME280;46162;57.568;25.814;2023-05-02T01:18:22;100673.72;;;4.70;100.00
59650;BME280;46162;57.568;25.814;2023-05-02T01:20:57;100670.31;;;4.68;100.00
59650;BME280;46162;57.568;25.814;2023-05-02T01:23:40;100663.78;;;4.72;100.00
59650;BME280;46162;57.568;25.814;2023-05-02T01:26:23;100669.66;;;4.65;100.00
59650;BME280;46162;57.568;25.814;2023-05-02T01:29:00;100661.03;;;4.61;100.00
59650;BME280;46162;57.568;25.814;2023-05-02T01:31:33;100659.94;;;4.64;100.00
59650;BME280;46162;57.568;25.814;2023-05-02T01:34:04;100660.59;;;4.67;100.00
59650;BME280;46162;57.568;25.814;2023-05-02T01:36:33;100662.28;;;4.68;100.00
59650;BME280;46162;57.568;25.814;2023-05-02T01:39:03;100656.34;;;4.76;100.00
59650;BME280;46162;57.568;25.814;2023-05-02T01:41:35;100648.16;;;4.90;100.00
59650;BME280;46162;57.568;25.814;2023-05-02T01:44:07;100653.00;;;4.96;100.00
59650;BME280;46162;57.568;25.814;2023-05-02T01:46:39;100645.38;;;5.03;100.00
59650;BME280;46162;57.568;25.814;2023-05-02T01:49:09;100642.34;;;5.08;100.00
59650;BME280;46162;57.568;25.814;2023-05-02T01:51:43;100635.66;;;5.13;100.00
59650;BME280;46162;57.568;25.814;2023-05-02T01:54:15;100641.41;;;5.20;100.00
59650;BME280;46162;57.568;25.814;2023-05-02T01:56:44;100630.00;;;5.29;100.00
59650;BME280;46162;57.568;25.814;2023-05-02T01:59:18;100634.03;;;5.35;100.00
59650;BME280;46162;57.568;25.814;2023-05-02T02:01:47;100625.75;;;5.38;100.00
59650;BME280;46162;57.568;25.814;2023-05-02T02:04:19;100623.69;;;5.42;100.00
59650;BME280;46162;57.568;25.814;2023-05-02T02:07:02;100620.78;;;5.45;100.00
59650;BME280;46162;57.568;25.814;2023-05-02T02:09:31;100624.41;;;5.44;100.00
59650;BME280;46162;57.568;25.814;2023-05-02T02:12:05;100619.91;;;5.44;100.00
59650;BME280;46162;57.568;25.814;2023-05-02T02:14:36;100619.44;;;5.50;100.00
59650;BME280;46162;57.568;25.814;2023-05-02T02:17:11;100617.59;;;5.51;100.00
59650;BME280;46162;57.568;25.814;2023-05-02T02:19:41;100608.72;;;5.50;100.00
59650;BME280;46162;57.568;25.814;2023-05-02T02:22:12;100612.50;;;5.48;100.00
59650;BME280;46162;57.568;25.814;2023-05-02T02:24:42;100608.34;;;5.55;100.00
59650;BME280;46162;57.568;25.814;2023-05-02T02:27:12;100606.66;;;5.54;100.00
59650;BME280;46162;57.568;25.814;2023-05-02T02:29:42;100603.09;;;5.53;100.00
59650;BME280;46162;57.568;25.814;2023-05-02T02:32:11;100596.78;;;5.54;100.00
59650;BME280;46162;57.568;25.814;2023-05-02T02:34:40;100592.41;;;5.53;100.00
59650;BME280;46162;57.568;25.814;2023-05-02T02:37:14;100594.97;;;5.55;100.00
59650;BME280;46162;57.568;25.814;2023-05-02T02:39:53;100590.81;;;5.51;100.00
59650;BME280;46162;57.568;25.814;2023-05-02T02:42:28;100593.75;;;5.59;100.00
59650;BME280;46162;57.568;25.814;2023-05-02T02:45:08;100584.00;;;5.58;100.00
59650;BME280;46162;57.568;25.814;2023-05-02T02:47:43;100582.78;;;5.62;100.00
59650;BME280;46162;57.568;25.814;2023-05-02T02:50:22;100580.84;;;5.64;100.00
59650;BME280;46162;57.568;25.814;2023-05-02T02:52:55;100574.13;;;5.58;100.00
59650;BME280;46162;57.568;25.814;2023-05-02T02:55:35;100580.59;;;5.56;100.00
59650;BME280;46162;57.568;25.814;2023-05-02T02:58:25;100583.03;;;5.59;100.00
59650;BME280;46162;57.568;25.814;2023-05-02T03:01:02;100578.16;;;5.53;100.00
59650;BME280;46162;57.568;25.814;2023-05-02T03:03:33;100576.22;;;5.55;100.00
59650;BME280;46162;57.568;25.814;2023-05-02T03:06:03;100573.03;;;5.61;100.00
59650;BME280;46162;57.568;25.814;2023-05-02T03:08:41;100570.34;;;5.61;100.00
59650;BME280;46162;57.568;25.814;2023-05-02T03:11:15;100568.16;;;5.66;100.00
59650;BME280;46162;57.568;25.814;2023-05-02T03:13:44;100582.53;;;5.65;100.00
59650;BME280;46162;57.568;25.814;2023-05-02T03:16:35;100576.59;;;5.62;100.00
59650;BME280;46162;57.568;25.814;2023-05-02T03:19:08;100574.88;;;5.60;100.00
59650;BME280;46162;57.568;25.814;2023-05-02T03:21:37;100577.69;;;5.59;100.00
59650;BME280;46162;57.568;25.814;2023-05-02T03:24:12;100576.34;;;5.65;100.00
59650;BME280;46162;57.568;25.814;2023-05-02T03:26:44;100576.44;;;5.63;100.00
59650;BME280;46162;57.568;25.814;2023-05-02T03:29:15;100571.81;;;5.65;100.00
59650;BME280;46162;57.568;25.814;2023-05-02T03:31:45;100570.47;;;5.71;100.00
59650;BME280;46162;57.568;25.814;2023-05-02T03:34:15;100561.81;;;5.78;100.00
59650;BME280;46162;57.568;25.814;2023-05-02T03:36:45;100561.44;;;5.83;100.00
59650;BME280;46162;57.568;25.814;2023-05-02T03:39:15;100560.59;;;5.82;100.00
59650;BME280;46162;57.568;25.814;2023-05-02T03:41:44;100554.88;;;5.87;100.00
59650;BME280;46162;57.568;25.814;2023-05-02T03:44:17;100548.03;;;6.06;100.00
59650;BME280;46162;57.568;25.814;2023-05-02T03:46:47;100544.75;;;6.02;100.00
59650;BME280;46162;57.568;25.814;2023-05-02T03:49:16;100549.59;;;6.08;100.00
59650;BME280;46162;57.568;25.814;2023-05-02T03:51:48;100544.97;;;6.10;100.00
59650;BME280;46162;57.568;25.814;2023-05-02T03:54:23;100545.06;;;6.20;100.00
59650;BME280;46162;57.568;25.814;2023-05-02T03:56:53;100546.16;;;6.17;100.00
59650;BME280;46162;57.568;25.814;2023-05-02T03:59:27;100545.91;;;6.20;100.00
59650;BME280;46162;57.568;25.814;2023-05-02T04:01:58;100545.78;;;6.22;100.00
59650;BME280;46162;57.568;25.814;2023-05-02T04:04:37;100547.97;;;6.28;100.00
59650;BME280;46162;57.568;25.814;2023-05-02T04:07:09;100541.31;;;6.43;100.00
59650;BME280;46162;57.568;25.814;2023-05-02T04:09:44;100537.28;;;6.49;100.00
59650;BME280;46162;57.568;25.814;2023-05-02T04:12:14;100537.22;;;6.60;100.00
59650;BME280;46162;57.568;25.814;2023-05-02T04:14:46;100532.78;;;6.71;100.00
59650;BME280;46162;57.568;25.814;2023-05-02T04:17:17;100533.50;;;6.73;100.00
59650;BME280;46162;57.568;25.814;2023-05-02T04:19:48;100538.16;;;6.71;100.00
59650;BME280;46162;57.568;25.814;2023-05-02T04:22:20;100539.56;;;6.75;100.00
59650;BME280;46162;57.568;25.814;2023-05-02T04:24:53;100532.19;;;6.88;100.00
59650;BME280;46162;57.568;25.814;2023-05-02T04:27:23;100536.56;;;6.89;100.00
59650;BME280;46162;57.568;25.814;2023-05-02T04:29:53;100530.72;;;7.05;100.00
59650;BME280;46162;57.568;25.814;2023-05-02T04:32:24;100527.38;;;7.13;100.00
59650;BME280;46162;57.568;25.814;2023-05-02T04:34:53;100528.66;;;7.18;100.00
59650;BME280;46162;57.568;25.814;2023-05-02T04:37:23;100520.66;;;7.28;100.00
59650;BME280;46162;57.568;25.814;2023-05-02T04:39:51;100514.94;;;7.42;100.00
59650;BME280;46162;57.568;25.814;2023-05-02T04:42:25;100512.84;;;7.56;100.00
59650;BME280;46162;57.568;25.814;2023-05-02T04:45:12;100512.03;;;7.65;100.00
59650;BME280;46162;57.568;25.814;2023-05-02T04:47:44;100505.84;;;7.74;100.00
59650;BME280;46162;57.568;25.814;2023-05-02T04:50:13;100507.53;;;7.85;100.00
59650;BME280;46162;57.568;25.814;2023-05-02T04:52:42;100503.72;;;7.87;100.00
59650;BME280;46162;57.568;25.814;2023-05-02T04:55:10;100501.88;;;7.88;100.00
59650;BME280;46162;57.568;25.814;2023-05-02T04:57:39;100503.31;;;7.92;100.00
59650;BME280;46162;57.568;25.814;2023-05-02T05:00:13;100496.09;;;8.02;100.00
59650;BME280;46162;57.568;25.814;2023-05-02T05:02:44;100495.53;;;8.08;100.00
59650;BME280;46162;57.568;25.814;2023-05-02T05:05:13;100495.41;;;8.19;100.00
59650;BME280;46162;57.568;25.814;2023-05-02T05:07:43;100488.59;;;8.35;100.00
59650;BME280;46162;57.568;25.814;2023-05-02T05:10:13;100491.03;;;8.48;100.00
59650;BME280;46162;57.568;25.814;2023-05-02T05:12:44;100487.50;;;8.57;100.00
59650;BME280;46162;57.568;25.814;2023-05-02T05:15:15;100489.03;;;8.69;100.00
59650;BME280;46162;57.568;25.814;2023-05-02T05:17:50;100480.81;;;8.80;100.00
59650;BME280;46162;57.568;25.814;2023-05-02T05:20:19;100479.19;;;8.88;100.00
59650;BME280;46162;57.568;25.814;2023-05-02T05:22:49;100478.31;;;8.97;100.00
59650;BME280;46162;57.568;25.814;2023-05-02T05:25:20;100463.22;;;9.23;100.00
59650;BME280;46162;57.568;25.814;2023-05-02T05:27:50;100466.00;;;9.32;100.00
59650;BME280;46162;57.568;25.814;2023-05-02T05:30:19;100458.81;;;9.50;100.00
59650;BME280;46162;57.568;25.814;2023-05-02T05:32:50;100461.28;;;9.61;100.00
59650;BME280;46162;57.568;25.814;2023-05-02T05:35:20;100458.72;;;9.69;100.00
59650;BME280;46162;57.568;25.814;2023-05-02T05:37:49;100452.63;;;9.67;100.00
59650;BME280;46162;57.568;25.814;2023-05-02T05:40:18;100450.91;;;9.66;100.00
59650;BME280;46162;57.568;25.814;2023-05-02T05:42:53;100457.63;;;9.62;100.00
59650;BME280;46162;57.568;25.814;2023-05-02T05:45:30;100451.38;;;9.62;100.00
59650;BME280;46162;57.568;25.814;2023-05-02T05:48:00;100451.00;;;9.75;100.00
59650;BME280;46162;57.568;25.814;2023-05-02T05:50:32;100446.72;;;9.82;100.00
59650;BME280;46162;57.568;25.814;2023-05-02T05:53:01;100442.69;;;9.86;100.00
59650;BME280;46162;57.568;25.814;2023-05-02T05:55:30;100439.69;;;9.89;100.00
59650;BME280;46162;57.568;25.814;2023-05-02T05:58:01;100437.53;;;9.93;100.00
59650;BME280;46162;57.568;25.814;2023-05-02T06:00:33;100438.00;;;9.88;100.00
59650;BME280;46162;57.568;25.814;2023-05-02T06:03:03;100434.69;;;9.94;100.00
59650;BME280;46162;57.568;25.814;2023-05-02T06:05:36;100436.06;;;9.98;100.00
59650;BME280;46162;57.568;25.814;2023-05-02T06:08:06;100431.00;;;9.95;100.00
59650;BME280;46162;57.568;25.814;2023-05-02T06:10:35;100437.91;;;9.98;100.00
59650;BME280;46162;57.568;25.814;2023-05-02T06:13:04;100421.59;;;9.99;100.00
59650;BME280;46162;57.568;25.814;2023-05-02T06:15:35;100424.56;;;9.96;100.00
59650;BME280;46162;57.568;25.814;2023-05-02T06:18:06;100424.56;;;9.96;100.00
59650;BME280;46162;57.568;25.814;2023-05-02T06:20:36;100419.56;;;10.01;100.00
59650;BME280;46162;57.568;25.814;2023-05-02T06:23:04;100419.97;;;10.06;100.00
59650;BME280;46162;57.568;25.814;2023-05-02T06:25:36;100412.69;;;10.25;100.00
59650;BME280;46162;57.568;25.814;2023-05-02T06:28:05;100422.66;;;10.42;100.00
59650;BME280;46162;57.568;25.814;2023-05-02T06:30:35;100413.66;;;10.60;100.00
59650;BME280;46162;57.568;25.814;2023-05-02T06:33:04;100421.00;;;10.75;100.00
59650;BME280;46162;57.568;25.814;2023-05-02T06:35:35;100420.25;;;10.91;100.00
59650;BME280;46162;57.568;25.814;2023-05-02T06:38:03;100413.53;;;10.95;100.00
59650;BME280;46162;57.568;25.814;2023-05-02T06:40:33;100410.84;;;10.95;100.00
59650;BME280;46162;57.568;25.814;2023-05-02T06:43:03;100414.97;;;11.16;100.00
59650;BME280;46162;57.568;25.814;2023-05-02T06:45:32;100418.06;;;11.29;100.00
59650;BME280;46162;57.568;25.814;2023-05-02T06:48:01;100407.94;;;11.31;100.00
59650;BME280;46162;57.568;25.814;2023-05-02T06:50:30;100414.25;;;11.48;100.00
59650;BME280;46162;57.568;25.814;2023-05-02T06:53:00;100397.91;;;11.74;100.00
59650;BME280;46162;57.568;25.814;2023-05-02T06:55:29;100406.53;;;11.86;100.00
59650;BME280;46162;57.568;25.814;2023-05-02T06:57:58;100394.34;;;11.74;100.00
59650;BME280;46162;57.568;25.814;2023-05-02T07:00:27;100403.63;;;11.55;100.00
59650;BME280;46162;57.568;25.814;2023-05-02T07:02:55;100401.28;;;11.60;100.00
59650;BME280;46162;57.568;25.814;2023-05-02T07:05:24;100401.28;;;11.76;100.00
59650;BME280;46162;57.568;25.814;2023-05-02T07:07:53;100398.94;;;11.81;100.00
59650;BME280;46162;57.568;25.814;2023-05-02T07:10:24;100397.06;;;11.74;100.00
59650;BME280;46162;57.568;25.814;2023-05-02T07:12:52;100393.59;;;11.90;100.00
59650;BME280;46162;57.568;25.814;2023-05-02T07:15:21;100391.22;;;12.03;100.00
59650;BME280;46162;57.568;25.814;2023-05-02T07:17:50;100394.06;;;12.26;100.00
59650;BME280;46162;57.568;25.814;2023-05-02T07:20:19;100383.25;;;12.42;100.00
59650;BME280;46162;57.568;25.814;2023-05-02T07:22:47;100381.38;;;12.43;100.00
59650;BME280;46162;57.568;25.814;2023-05-02T07:25:16;100381.72;;;12.56;100.00
59650;BME280;46162;57.568;25.814;2023-05-02T07:27:46;100379.78;;;12.73;100.00
59650;BME280;46162;57.568;25.814;2023-05-02T07:30:15;100377.75;;;12.75;100.00
59650;BME280;46162;57.568;25.814;2023-05-02T07:32:44;100379.94;;;12.80;100.00
59650;BME280;46162;57.568;25.814;2023-05-02T07:35:12;100365.41;;;12.73;100.00
59650;BME280;46162;57.568;25.814;2023-05-02T07:37:41;100375.88;;;12.76;100.00
59650;BME280;46162;57.568;25.814;2023-05-02T07:40:10;100373.13;;;12.92;100.00
59650;BME280;46162;57.568;25.814;2023-05-02T07:42:39;100368.03;;;12.97;100.00
59650;BME280;46162;57.568;25.814;2023-05-02T07:45:09;100360.22;;;13.02;100.00
59650;BME280;46162;57.568;25.814;2023-05-02T07:47:38;100359.66;;;13.15;100.00
59650;BME280;46162;57.568;25.814;2023-05-02T07:50:08;100352.84;;;13.27;100.00
59650;BME280;46162;57.568;25.814;2023-05-02T07:52:37;100347.16;;;13.45;100.00
59650;BME280;46162;57.568;25.814;2023-05-02T07:55:06;100343.03;;;13.58;94.72
59650;BME280;46162;57.568;25.814;2023-05-02T07:57:35;100351.94;;;13.66;97.07
59650;BME280;46162;57.568;25.814;2023-05-02T08:00:05;100336.50;;;13.67;100.00
59650;BME280;46162;57.568;25.814;2023-05-02T08:02:41;100345.00;;;13.64;100.00
59650;BME280;46162;57.568;25.814;2023-05-02T08:05:11;100345.91;;;13.79;98.74
59650;BME280;46162;57.568;25.814;2023-05-02T08:07:40;100346.41;;;13.83;97.37
59650;BME280;46162;57.568;25.814;2023-05-02T08:10:09;100342.69;;;13.98;95.78
59650;BME280;46162;57.568;25.814;2023-05-02T08:12:38;100336.59;;;14.19;88.75
59650;BME280;46162;57.568;25.814;2023-05-02T08:15:09;100339.19;;;14.13;100.00
59650;BME280;46162;57.568;25.814;2023-05-02T08:17:39;100330.00;;;14.14;100.00
59650;BME280;46162;57.568;25.814;2023-05-02T08:20:09;100325.16;;;14.24;100.00
59650;BME280;46162;57.568;25.814;2023-05-02T08:22:38;100321.31;;;14.18;93.04
59650;BME280;46162;57.568;25.814;2023-05-02T08:25:07;100326.00;;;14.10;92.61
59650;BME280;46162;57.568;25.814;2023-05-02T08:27:36;100317.56;;;14.05;97.84
59650;BME280;46162;57.568;25.814;2023-05-02T08:30:05;100315.94;;;13.95;90.98
59650;BME280;46162;57.568;25.814;2023-05-02T08:32:35;100316.00;;;13.87;93.86
59650;BME280;46162;57.568;25.814;2023-05-02T08:35:05;100313.88;;;13.97;98.62
59650;BME280;46162;57.568;25.814;2023-05-02T08:37:35;100306.44;;;14.14;88.74
59650;BME280;46162;57.568;25.814;2023-05-02T08:40:05;100302.88;;;14.29;86.23
59650;BME280;46162;57.568;25.814;2023-05-02T08:42:35;100304.22;;;14.48;85.23
59650;BME280;46162;57.568;25.814;2023-05-02T08:45:05;100294.69;;;14.67;87.84
59650;BME280;46162;57.568;25.814;2023-05-02T08:47:37;100287.09;;;14.62;90.10
59650;BME280;46162;57.568;25.814;2023-05-02T08:50:07;100290.91;;;14.53;77.95
59650;BME280;46162;57.568;25.814;2023-05-02T08:52:38;100281.66;;;14.62;81.43
59650;BME280;46162;57.568;25.814;2023-05-02T08:55:07;100282.22;;;14.72;81.44
59650;BME280;46162;57.568;25.814;2023-05-02T08:57:36;100284.75;;;14.74;81.89
59650;BME280;46162;57.568;25.814;2023-05-02T09:00:06;100277.59;;;14.88;80.71
59650;BME280;46162;57.568;25.814;2023-05-02T09:02:47;100276.19;;;14.92;82.49
59650;BME280;46162;57.568;25.814;2023-05-02T09:05:19;100278.22;;;15.04;81.95
59650;BME280;46162;57.568;25.814;2023-05-02T09:07:50;100275.47;;;15.19;81.31
59650;BME280;46162;57.568;25.814;2023-05-02T09:10:20;100267.84;;;15.30;78.96
59650;BME280;46162;57.568;25.814;2023-05-02T09:12:49;100266.94;;;15.44;76.66
59650;BME280;46162;57.568;25.814;2023-05-02T09:15:19;100260.47;;;15.45;71.15
59650;BME280;46162;57.568;25.814;2023-05-02T09:17:48;100249.72;;;15.58;76.68
59650;BME280;46162;57.568;25.814;2023-05-02T09:20:17;100246.63;;;15.83;71.27
59650;BME280;46162;57.568;25.814;2023-05-02T09:22:51;100245.81;;;15.67;74.37
59650;BME280;46162;57.568;25.814;2023-05-02T09:25:20;100231.25;;;15.54;73.84
59650;BME280;46162;57.568;25.814;2023-05-02T09:27:49;100226.06;;;15.59;67.45
59650;BME280;46162;57.568;25.814;2023-05-02T09:30:21;100232.19;;;15.67;78.11
59650;BME280;46162;57.568;25.814;2023-05-02T09:32:50;100228.84;;;15.65;81.13
59650;BME280;46162;57.568;25.814;2023-05-02T09:35:22;100220.88;;;15.85;71.42
59650;BME280;46162;57.568;25.814;2023-05-02T09:37:53;100209.19;;;16.26;74.25
59650;BME280;46162;57.568;25.814;2023-05-02T09:40:23;100208.59;;;15.96;66.25
59650;BME280;46162;57.568;25.814;2023-05-02T09:42:55;100206.56;;;15.77;67.48
59650;BME280;46162;57.568;25.814;2023-05-02T09:45:24;100202.00;;;15.62;73.39
59650;BME280;46162;57.568;25.814;2023-05-02T09:47:53;100202.16;;;15.76;72.53
59650;BME280;46162;57.568;25.814;2023-05-02T09:50:35;100198.00;;;15.80;72.65
59650;BME280;46162;57.568;25.814;2023-05-02T09:53:07;100191.13;;;15.62;75.85
59650;BME280;46162;57.568;25.814;2023-05-02T09:55:37;100200.59;;;15.66;68.78
59650;BME280;46162;57.568;25.814;2023-05-02T09:58:06;100192.69;;;15.50;68.98
59650;BME280;46162;57.568;25.814;2023-05-02T10:00:39;100188.72;;;15.46;70.20
59650;BME280;46162;57.568;25.814;2023-05-02T10:03:08;100199.06;;;15.79;74.33
59650;BME280;46162;57.568;25.814;2023-05-02T10:05:38;100170.97;;;16.06;71.76
59650;BME280;46162;57.568;25.814;2023-05-02T10:08:09;100189.69;;;15.88;63.96
59650;BME280;46162;57.568;25.814;2023-05-02T10:10:40;100177.97;;;15.87;70.38
59650;BME280;46162;57.568;25.814;2023-05-02T10:13:12;100179.56;;;15.75;66.11
59650;BME280;46162;57.568;25.814;2023-05-02T10:15:42;100190.34;;;15.90;72.80
59650;BME280;46162;57.568;25.814;2023-05-02T10:18:12;100174.16;;;16.17;83.15
59650;BME280;46162;57.568;25.814;2023-05-02T10:20:47;100180.66;;;16.16;69.70
59650;BME280;46162;57.568;25.814;2023-05-02T10:23:27;100174.47;;;16.35;69.08
59650;BME280;46162;57.568;25.814;2023-05-02T10:25:59;100162.97;;;16.46;66.37
59650;BME280;46162;57.568;25.814;2023-05-02T10:28:29;100180.06;;;16.68;71.23
59650;BME280;46162;57.568;25.814;2023-05-02T10:30:59;100174.78;;;16.60;66.98
59650;BME280;46162;57.568;25.814;2023-05-02T10:33:30;100174.75;;;16.53;63.20
59650;BME280;46162;57.568;25.814;2023-05-02T10:36:01;100170.31;;;16.46;61.24
59650;BME280;46162;57.568;25.814;2023-05-02T10:38:32;100165.94;;;16.51;60.40
59650;BME280;46162;57.568;25.814;2023-05-02T10:41:08;100168.16;;;16.28;65.42
59650;BME280;46162;57.568;25.814;2023-05-02T10:43:37;100171.53;;;16.37;66.03
59650;BME280;46162;57.568;25.814;2023-05-02T10:46:33;100177.34;;;16.27;65.64
59650;BME280;46162;57.568;25.814;2023-05-02T10:49:04;100164.59;;;16.27;65.70
59650;BME280;46162;57.568;25.814;2023-05-02T10:51:34;100170.41;;;16.18;65.81
59650;BME280;46162;57.568;25.814;2023-05-02T10:54:21;100170.53;;;16.09;65.38
59650;BME280;46162;57.568;25.814;2023-05-02T10:57:03;100165.50;;;16.06;71.29
59650;BME280;46162;57.568;25.814;2023-05-02T10:59:34;100168.94;;;16.22;74.69
59650;BME280;46162;57.568;25.814;2023-05-02T11:02:03;100172.66;;;16.07;71.00
59650;BME280;46162;57.568;25.814;2023-05-02T11:04:57;100172.47;;;16.16;66.43
59650;BME280;46162;57.568;25.814;2023-05-02T11:07:28;100163.13;;;16.25;62.77
59650;BME280;46162;57.568;25.814;2023-05-02T11:10:29;100169.88;;;16.01;62.43
59650;BME280;46162;57.568;25.814;2023-05-02T11:12:58;100165.44;;;15.93;69.45
59650;BME280;46162;57.568;25.814;2023-05-02T11:15:54;100165.97;;;15.75;65.72
59650;BME280;46162;57.568;25.814;2023-05-02T11:18:24;100159.78;;;15.66;70.04
59650;BME280;46162;57.568;25.814;2023-05-02T11:21:28;100146.69;;;15.77;69.05
59650;BME280;46162;57.568;25.814;2023-05-02T11:27:37;100141.34;;;16.31;65.69
59650;BME280;46162;57.568;25.814;2023-05-02T11:30:07;100151.41;;;16.31;66.28
59650;BME280;46162;57.568;25.814;2023-05-02T11:33:10;100159.34;;;16.26;70.07
59650;BME280;46162;57.568;25.814;2023-05-02T11:35:43;100155.59;;;16.33;71.77
59650;BME280;46162;57.568;25.814;2023-05-02T11:38:14;100166.75;;;16.45;71.13
59650;BME280;46162;57.568;25.814;2023-05-02T11:40:55;100161.19;;;16.19;66.60
59650;BME280;46162;57.568;25.814;2023-05-02T11:43:26;100162.00;;;16.12;70.64
59650;BME280;46162;57.568;25.814;2023-05-02T11:45:59;100157.63;;;15.83;68.76
59650;BME280;46162;57.568;25.814;2023-05-02T11:48:28;100181.16;;;15.69;71.20
59650;BME280;46162;57.568;25.814;2023-05-02T11:50:59;100180.66;;;15.81;74.70
59650;BME280;46162;57.568;25.814;2023-05-02T11:53:32;100193.22;;;15.60;73.52
59650;BME280;46162;57.568;25.814;2023-05-02T11:56:02;100190.38;;;15.47;73.88
59650;BME280;46162;57.568;25.814;2023-05-02T11:58:32;100190.38;;;15.47;76.02
59650;BME280;46162;57.568;25.814;2023-05-02T12:01:11;100189.63;;;15.32;76.07
59650;BME280;46162;57.568;25.814;2023-05-02T12:03:41;100187.47;;;15.27;75.87
59650;BME280;46162;57.568;25.814;2023-05-02T12:06:11;100184.25;;;15.17;74.66
59650;BME280;46162;57.568;25.814;2023-05-02T12:08:42;100183.78;;;15.35;82.86
59650;BME280;46162;57.568;25.814;2023-05-02T12:11:12;100183.34;;;15.31;76.30
59650;BME280;46162;57.568;25.814;2023-05-02T12:13:47;100191.03;;;15.27;86.42
59650;BME280;46162;57.568;25.814;2023-05-02T12:16:17;100188.69;;;15.03;91.29
59650;BME280;46162;57.568;25.814;2023-05-02T12:18:46;100189.41;;;14.90;90.02
59650;BME280;46162;57.568;25.814;2023-05-02T12:21:16;100187.78;;;14.74;89.91
59650;BME280;46162;57.568;25.814;2023-05-02T12:23:45;100178.22;;;14.49;85.53
59650;BME280;46162;57.568;25.814;2023-05-02T12:26:17;100177.88;;;14.37;89.28
59650;BME280;46162;57.568;25.814;2023-05-02T12:28:49;100178.34;;;14.26;89.15
59650;BME280;46162;57.568;25.814;2023-05-02T12:31:18;100187.25;;;14.19;89.21
59650;BME280;46162;57.568;25.814;2023-05-02T12:33:47;100184.06;;;14.16;86.34
59650;BME280;46162;57.568;25.814;2023-05-02T12:36:17;100177.91;;;14.07;90.04
59650;BME280;46162;57.568;25.814;2023-05-02T12:38:49;100184.72;;;14.03;98.63
59650;BME280;46162;57.568;25.814;2023-05-02T12:41:31;100182.00;;;14.03;98.09
59650;BME280;46162;57.568;25.814;2023-05-02T12:44:02;100189.69;;;13.85;100.00
59650;BME280;46162;57.568;25.814;2023-05-02T12:46:31;100179.66;;;13.70;100.00
59650;BME280;46162;57.568;25.814;2023-05-02T12:49:04;100187.66;;;13.64;100.00
59650;BME280;46162;57.568;25.814;2023-05-02T12:51:34;100182.88;;;13.51;100.00
59650;BME280;46162;57.568;25.814;2023-05-02T12:54:03;100186.31;;;13.45;100.00
59650;BME280;46162;57.568;25.814;2023-05-02T12:56:37;100175.13;;;13.48;100.00
59650;BME280;46162;57.568;25.814;2023-05-02T12:59:08;100185.47;;;13.44;100.00
59650;BME280;46162;57.568;25.814;2023-05-02T13:01:38;100190.78;;;13.38;100.00
59650;BME280;46162;57.568;25.814;2023-05-02T13:04:06;100187.72;;;13.41;100.00